Flight Track Log - Related Links

Times and Time Zones

All times are in EDT time to prevent confusion due to time zone crossing. See the N92PK flight status page for this flight to view local times or setup timezone preferences in your user account.

Time Position Orientation Groundspeed Altitude Reporting Facility
EDT Latitude Longitude Course Direction KTS MPH feet Rate Location/Type
Wed 03:27:27 PM 37.3528 -95.4531 33° Northeast 151 174 2,600  Level Kansas City Center
Wed 03:28:29 PM 37.3842 -95.4269 33° Northeast 136 157 3,600 836 Climbing Kansas City Center
Wed 03:29:29 PM 37.4189 -95.4008 31° Northeast 140 161 4,300 683 Climbing Kansas City Center
Wed 03:30:32 PM 37.4500 -95.3681 40° Northeast 142 163 5,000 720 Climbing Kansas City Center
Wed 03:31:34 PM 37.4792 -95.3344 42° Northeast 141 162 5,800 836 Climbing Kansas City Center
Wed 03:32:34 PM 37.5078 -95.2983 45° Northeast 142 163 6,700 462 Climbing Kansas City Center
Wed 03:37:51 PM 37.6860 -95.0930 45° Northeast 176 203 8,700 348 Climbing FlightAware ADS-B
Wed 03:38:19 PM 37.7000 -95.0770 42° Northeast 176 203 8,700  Level FlightAware ADS-B
Wed 03:38:51 PM 37.6990 -95.0790 238° Southwest 175 201 8,700  Level FlightAware ADS-B
Wed 03:39:15 PM 37.7110 -95.0650 43° Northeast 175 201 8,700  Level FlightAware ADS-B
Wed 03:39:31 PM 37.7490 -95.0200 43° Northeast 179 206 8,700  Level FlightAware ADS-B
Wed 03:40:23 PM 37.7730 -94.9920 43° Northeast 179 206 8,700  Level FlightAware ADS-B
Wed 03:43:26 PM 37.8820 -94.8650 43° Northeast 176 203 8,700  Level FlightAware ADS-B
Wed 03:44:07 PM 37.9060 -94.8380 42° Northeast 177 204 8,700  Level FlightAware ADS-B
Wed 03:44:43 PM 37.9240 -94.8170 43° Northeast 177 204 8,700  Level FlightAware ADS-B
Wed 03:45:07 PM 37.9370 -94.8030 40° Northeast 177 204 8,700  Level FlightAware ADS-B
Wed 03:45:19 PM 37.9430 -94.7960 43° Northeast 177 204 8,700  Level FlightAware ADS-B
Wed 03:47:56 PM 38.0530 -94.6660 43° Northeast 178 205 8,700  Level FlightAware ADS-B
Wed 03:48:21 PM 38.0660 -94.6510 42° Northeast 178 205 8,700  Level FlightAware ADS-B
Wed 03:48:56 PM 38.0880 -94.6240 44° Northeast 179 206 8,700  Level FlightAware ADS-B
Wed 03:49:16 PM 38.0980 -94.6130 41° Northeast 176 203 8,700  Level FlightAware ADS-B
Wed 03:49:53 PM 38.1170 -94.5910 42° Northeast 176 203 8,700  Level FlightAware ADS-B
Wed 03:50:29 PM 38.1350 -94.5700 43° Northeast 176 203 8,700  Level FlightAware ADS-B
Wed 03:50:41 PM 38.1410 -94.5630 43° Northeast 176 203 8,700 419 Level FlightAware ADS-B
Wed 03:51:12 PM 38.1689 -94.5292 43° Northeast 176 203 9,000 261 Climbing Kansas City Center
Wed 03:52:13 PM 38.2036 -94.4869 44° Northeast 177 204 9,100 48 Climbing Kansas City Center
Wed 03:53:17 PM 38.2464 -94.4369 43° Northeast 182 209 9,100  Level Kansas City Center
Wed 03:54:18 PM 38.2808 -94.3958 43° Northeast 183 211 9,100  Level Kansas City Center
Wed 03:55:21 PM 38.3156 -94.3547 43° Northeast 180 207 9,100  Level Kansas City Center
Wed 03:56:23 PM 38.3592 -94.3106 38° Northeast 177 204 9,100  Level Kansas City Center
Wed 03:57:23 PM 38.3967 -94.2719 39° Northeast 182 209 9,100  Level Kansas City Center
Wed 03:58:27 PM 38.4392 -94.2258 40° Northeast 180 207 9,100 -62 Level Kansas City Center
Wed 04:03:48 PM 38.6480 -94.0050 40° Northeast 179 206 8,700 -71 Descending FlightAware ADS-B
Wed 04:04:05 PM 38.6590 -93.9930 40° Northeast 178 205 8,700  Level FlightAware ADS-B
Wed 04:04:38 PM 38.6800 -93.9720 38° Northeast 176 203 8,700  Level FlightAware ADS-B
Wed 04:05:06 PM 38.6970 -93.9530 41° Northeast 174 200 8,700  Level FlightAware ADS-B
Wed 04:05:30 PM 38.7130 -93.9370 38° Northeast 176 203 8,700  Level FlightAware ADS-B
Wed 04:05:50 PM 38.7260 -93.9230 40° Northeast 176 203 8,700  Level FlightAware ADS-B
Wed 04:06:16 PM 38.7420 -93.9060 40° Northeast 178 205 8,700  Level FlightAware ADS-B
Wed 04:06:46 PM 38.7610 -93.8850 41° Northeast 180 207 8,700  Level FlightAware ADS-B
Wed 04:06:58 PM 38.7680 -93.8780 38° Northeast 180 207 8,700  Level FlightAware ADS-B
Wed 04:07:24 PM 38.7860 -93.8580 41° Northeast 181 208 8,700  Level FlightAware ADS-B
Wed 04:07:50 PM 38.8020 -93.8400 41° Northeast 181 208 8,700  Level FlightAware ADS-B
Wed 04:08:50 PM 38.8400 -93.8010 39° Northeast 178 205 8,700  Level FlightAware ADS-B
Wed 04:09:16 PM 38.8570 -93.7820 41° Northeast 176 203 8,700  Level FlightAware ADS-B
Wed 04:09:35 PM 38.8690 -93.7700 38° Northeast 176 203 8,700  Level FlightAware ADS-B
Wed 04:10:02 PM 38.8850 -93.7520 41° Northeast 178 205 8,700  Level FlightAware ADS-B
Wed 04:10:30 PM 38.9020 -93.7300 45° Northeast 178 205 8,700  Level FlightAware ADS-B
Wed 04:10:59 PM 38.9180 -93.7090 46° Northeast 178 205 8,700  Level FlightAware ADS-B
Wed 04:11:25 PM 38.9340 -93.6900 43° Northeast 177 204 8,700  Level FlightAware ADS-B
Wed 04:11:50 PM 38.9490 -93.6720 43° Northeast 178 205 8,700  Level FlightAware ADS-B
Wed 04:12:19 PM 38.9660 -93.6510 44° Northeast 181 208 8,700  Level FlightAware ADS-B
Wed 04:12:36 PM 38.9770 -93.6370 45° Northeast 183 211 8,700  Level FlightAware ADS-B
Wed 04:13:04 PM 38.9940 -93.6160 44° Northeast 181 208 8,700  Level FlightAware ADS-B
Wed 04:13:24 PM 39.0070 -93.6000 44° Northeast 182 209 8,700  Level FlightAware ADS-B
Wed 04:13:38 PM 39.0150 -93.5900 44° Northeast 182 209 8,700 -136 Level FlightAware ADS-B
Wed 04:14:08 PM 39.0330 -93.5680 44° Northeast 183 211 8,600 -103 Descending FlightAware ADS-B
Wed 04:14:36 PM 39.0500 -93.5460 45° Northeast 181 208 8,600  Level FlightAware ADS-B
Wed 04:14:58 PM 39.0630 -93.5300 44° Northeast 181 208 8,600  Level FlightAware ADS-B
Wed 04:15:32 PM 39.0840 -93.5040 44° Northeast 181 208 8,600  Level FlightAware ADS-B
Wed 04:15:56 PM 39.0980 -93.4870 43° Northeast 181 208 8,600  Level FlightAware ADS-B
Wed 04:16:24 PM 39.1150 -93.4660 44° Northeast 174 200 8,600  Level FlightAware ADS-B
Wed 04:16:52 PM 39.1320 -93.4450 44° Northeast 178 205 8,600  Level FlightAware ADS-B
Wed 04:17:20 PM 39.1490 -93.4240 44° Northeast 182 209 8,600  Level FlightAware ADS-B
Wed 04:17:35 PM 39.1570 -93.4140 44° Northeast 181 208 8,600  Level FlightAware ADS-B
Wed 04:18:06 PM 39.1770 -93.3890 44° Northeast 183 211 8,600  Level FlightAware ADS-B
Wed 04:18:54 PM 39.2010 -93.3590 44° Northeast 182 209 8,600  Level FlightAware ADS-B
Wed 04:19:06 PM 39.2130 -93.3440 44° Northeast 181 208 8,600  Level FlightAware ADS-B
Wed 04:19:36 PM 39.2300 -93.3220 45° Northeast 182 209 8,600  Level FlightAware ADS-B
Wed 04:20:16 PM 39.2550 -93.2920 43° Northeast 183 211 8,600  Level FlightAware ADS-B
Wed 04:21:39 PM 39.2990 -93.2370 44° Northeast 183 211 8,600  Level FlightAware ADS-B
Wed 04:21:51 PM 39.3050 -93.2290 46° Northeast 183 211 8,600 184 Level FlightAware ADS-B
Wed 04:23:17 PM 39.3594 -93.1614 46° Northeast 185 213 8,900 123 Climbing Kansas City Center
Wed 04:24:17 PM 39.3958 -93.1175 43° Northeast 182 209 8,900  Level Kansas City Center
Wed 04:25:21 PM 39.4314 -93.0717 45° Northeast 182 209 8,900  Level Kansas City Center
Wed 04:26:21 PM 39.4731 -93.0172 45° Northeast 181 208 8,900  Level Kansas City Center
Wed 04:27:24 PM 39.5089 -92.9714 45° Northeast 181 208 8,900  Level Kansas City Center
Wed 04:28:26 PM 39.5444 -92.9272 44° Northeast 180 207 8,900  Level Kansas City Center
Wed 04:29:26 PM 39.5806 -92.8822 44° Northeast 180 207 8,900  Level Kansas City Center
Wed 04:30:30 PM 39.6169 -92.8358 44° Northeast 183 211 8,900  Level Kansas City Center
Wed 04:31:33 PM 39.6600 -92.7803 45° Northeast 185 213 8,900  Level Kansas City Center
Wed 04:32:34 PM 39.6964 -92.7344 44° Northeast 184 212 8,900  Level Kansas City Center
Wed 04:33:37 PM 39.7325 -92.6889 44° Northeast 184 212 8,900  Level Kansas City Center
Wed 04:34:38 PM 39.7678 -92.6439 44° Northeast 180 207 8,900  Level Kansas City Center
Wed 04:35:39 PM 39.8067 -92.5964 43° Northeast 179 206 8,900  Level Kansas City Center
Wed 04:36:43 PM 39.8461 -92.5444 45° Northeast 181 208 8,900  Level Kansas City Center
Wed 04:37:45 PM 39.8819 -92.4994 44° Northeast 181 208 8,900  Level Kansas City Center
Wed 04:38:45 PM 39.9169 -92.4536 45° Northeast 181 208 8,900  Level Kansas City Center
Wed 04:39:49 PM 39.9528 -92.4075 45° Northeast 182 209 8,900  Level Kansas City Center
Wed 04:40:50 PM 39.9956 -92.3533 44° Northeast 181 208 8,900  Level Kansas City Center
Wed 04:41:51 PM 40.0311 -92.3069 45° Northeast 183 211 8,900 48 Level Kansas City Center
Wed 04:42:55 PM 40.0664 -92.2628 44° Northeast 180 207 9,000 48 Climbing Kansas City Center
Wed 04:43:56 PM 40.1006 -92.2172 46° Northeast 178 205 9,000  Level Kansas City Center
Wed 04:44:57 PM 40.1431 -92.1611 45° Northeast 182 209 9,000  Level Kansas City Center
Wed 04:46:01 PM 40.1786 -92.1156 44° Northeast 182 209 9,000  Level Kansas City Center
Wed 04:47:02 PM 40.2139 -92.0697 45° Northeast 180 207 9,000  Level Kansas City Center
Wed 04:48:06 PM 40.2492 -92.0228 45° Northeast 182 209 9,000  Level Kansas City Center
Wed 04:49:06 PM 40.2847 -91.9778 44° Northeast 181 208 9,000  Level Kansas City Center
Wed 04:50:10 PM 40.3269 -91.9222 45° Northeast 181 208 9,000  Level Kansas City Center
Wed 04:51:11 PM 40.3622 -91.8753 45° Northeast 182 209 9,000  Level Kansas City Center
Wed 04:52:14 PM 40.3975 -91.8283 45° Northeast 182 209 9,000  Level Kansas City Center
Wed 04:53:15 PM 40.4344 -91.7811 44° Northeast 185 213 9,000  Level Kansas City Center
Wed 04:54:15 PM 40.4706 -91.7339 45° Northeast 185 213 9,000  Level Kansas City Center
Wed 04:55:19 PM 40.5122 -91.6764 46° Northeast 183 211 9,000  Level Kansas City Center
Wed 04:56:20 PM 40.5492 -91.6292 44° Northeast 185 213 9,000  Level Kansas City Center
Wed 04:57:24 PM 40.5844 -91.5806 46° Northeast 186 214 9,000  Level Kansas City Center
Wed 04:58:25 PM 40.6214 -91.5328 44° Northeast 187 215 9,000  Level Kansas City Center
Wed 04:59:26 PM 40.6644 -91.4761 45° Northeast 185 213 9,000  Level Kansas City Center
Wed 05:00:29 PM 40.6994 -91.4292 45° Northeast 183 211 9,000  Level Kansas City Center
Wed 05:01:30 PM 40.7344 -91.3814 46° Northeast 183 211 9,000  Level Kansas City Center
Wed 05:02:34 PM 40.7722 -91.3336 44° Northeast 186 214 9,000 -45 Level Kansas City Center
Wed 05:08:11 PM 40.9840 -91.0510 44° Northeast 190 219 8,700 -49 Descending FlightAware ADS-B
Wed 05:08:40 PM 41.0010 -91.0270 47° Northeast 190 219 8,700  Level FlightAware ADS-B
Wed 05:09:07 PM 41.0160 -91.0080 44° Northeast 190 219 8,700  Level FlightAware ADS-B
Wed 05:09:21 PM 41.0230 -90.9980 47° Northeast 190 219 8,700  Level FlightAware ADS-B
Wed 05:09:57 PM 41.0420 -90.9730 45° Northeast 190 219 8,700  Level FlightAware ADS-B
Wed 05:10:06 PM 41.0540 -90.9550 49° Northeast 187 215 8,700  Level FlightAware ADS-B
Wed 05:10:36 PM 41.0720 -90.9310 45° Northeast 187 215 8,700  Level FlightAware ADS-B
Wed 05:10:51 PM 41.0810 -90.9190 45° Northeast 186 214 8,700  Level FlightAware ADS-B
Wed 05:11:38 PM 41.1100 -90.8810 45° Northeast 190 219 8,700  Level FlightAware ADS-B
Wed 05:12:09 PM 41.1250 -90.8600 47° Northeast 190 219 8,700  Level FlightAware ADS-B
Wed 05:12:31 PM 41.1430 -90.8360 45° Northeast 189 217 8,700  Level FlightAware ADS-B
Wed 05:13:02 PM 41.1610 -90.8110 46° Northeast 187 215 8,700  Level FlightAware ADS-B
Wed 05:13:57 PM 41.1910 -90.7710 45° Northeast 187 215 8,700  Level FlightAware ADS-B
Wed 05:14:21 PM 41.2040 -90.7540 45° Northeast 187 215 8,700  Level FlightAware ADS-B
Wed 05:14:45 PM 41.2160 -90.7370 47° Northeast 187 215 8,700  Level FlightAware ADS-B
Wed 05:15:23 PM 41.2460 -90.6950 46° Northeast 188 216 8,700  Level FlightAware ADS-B
Wed 05:15:49 PM 41.2600 -90.6770 44° Northeast 188 216 8,700  Level FlightAware ADS-B
Wed 05:16:20 PM 41.2810 -90.6470 47° Northeast 189 217 8,700  Level FlightAware ADS-B
Wed 05:16:45 PM 41.2970 -90.6250 46° Northeast 188 216 8,700  Level FlightAware ADS-B
Wed 05:17:13 PM 41.3120 -90.6060 44° Northeast 188 216 8,700  Level FlightAware ADS-B
Wed 05:17:38 PM 41.3250 -90.5880 46° Northeast 188 216 8,700  Level FlightAware ADS-B
Wed 05:18:02 PM 41.3370 -90.5720 45° Northeast 188 216 8,700  Level FlightAware ADS-B
Wed 05:18:27 PM 41.3510 -90.5540 44° Northeast 188 216 8,700  Level FlightAware ADS-B
Wed 05:18:54 PM 41.3740 -90.5210 47° Northeast 188 216 8,700  Level FlightAware ADS-B
Wed 05:19:22 PM 41.3920 -90.4950 47° Northeast 188 216 8,700  Level FlightAware ADS-B
Wed 05:20:06 PM 41.4150 -90.4630 46° Northeast 188 216 8,700  Level FlightAware ADS-B
Wed 05:20:34 PM 41.4360 -90.4350 45° Northeast 186 214 8,700  Level FlightAware ADS-B
Wed 05:20:44 PM 41.4410 -90.4280 46° Northeast 186 214 8,700  Level FlightAware ADS-B
Wed 05:21:10 PM 41.4580 -90.4050 45° Northeast 186 214 8,700  Level FlightAware ADS-B
Wed 05:21:30 PM 41.4700 -90.3890 45° Northeast 186 214 8,700  Level FlightAware ADS-B
Wed 05:21:57 PM 41.4850 -90.3670 48° Northeast 184 212 8,700  Level FlightAware ADS-B
Wed 05:22:25 PM 41.5020 -90.3440 45° Northeast 184 212 8,700  Level FlightAware ADS-B
Wed 05:22:50 PM 41.5170 -90.3240 45° Northeast 184 212 8,700  Level FlightAware ADS-B
Wed 05:23:16 PM 41.5320 -90.3030 46° Northeast 186 214 8,700  Level FlightAware ADS-B
Wed 05:23:45 PM 41.5500 -90.2780 46° Northeast 186 214 8,700  Level FlightAware ADS-B
Wed 05:24:16 PM 41.5680 -90.2530 46° Northeast 185 213 8,700  Level FlightAware ADS-B
Wed 05:24:44 PM 41.5850 -90.2300 45° Northeast 183 211 8,700  Level FlightAware ADS-B
Wed 05:25:08 PM 41.5990 -90.2100 47° Northeast 184 212 8,700  Level FlightAware ADS-B
Wed 05:25:38 PM 41.6170 -90.1850 46° Northeast 185 213 8,700  Level FlightAware ADS-B
Wed 05:26:08 PM 41.6350 -90.1610 45° Northeast 183 211 8,700  Level FlightAware ADS-B
Wed 05:26:33 PM 41.6500 -90.1390 48° Northeast 183 211 8,700  Level FlightAware ADS-B
Wed 05:26:48 PM 41.6590 -90.1270 45° Northeast 182 209 8,700  Level FlightAware ADS-B
Wed 05:27:48 PM 41.6910 -90.0820 46° Northeast 183 211 8,700  Level FlightAware ADS-B
Wed 05:28:12 PM 41.7070 -90.0600 46° Northeast 182 209 8,700  Level FlightAware ADS-B
Wed 05:28:45 PM 41.7270 -90.0310 47° Northeast 181 208 8,700  Level FlightAware ADS-B
Wed 05:29:10 PM 41.7410 -90.0120 45° Northeast 182 209 8,700  Level FlightAware ADS-B
Wed 05:29:40 PM 41.7590 -89.9870 46° Northeast 183 211 8,700  Level FlightAware ADS-B
Wed 05:30:08 PM 41.7750 -89.9640 47° Northeast 181 208 8,700  Level FlightAware ADS-B
Wed 05:30:48 PM 41.7990 -89.9310 46° Northeast 183 211 8,700  Level FlightAware ADS-B
Wed 05:31:16 PM 41.8150 -89.9080 47° Northeast 186 214 8,700  Level FlightAware ADS-B
Wed 05:31:44 PM 41.8320 -89.8850 45° Northeast 182 209 8,700  Level FlightAware ADS-B
Wed 05:32:01 PM 41.8420 -89.8720 44° Northeast 182 209 8,700  Level FlightAware ADS-B
Wed 05:32:24 PM 41.8540 -89.8530 50° Northeast 181 208 8,700  Level FlightAware ADS-B
Wed 05:32:55 PM 41.8720 -89.8280 46° Northeast 183 211 8,700  Level FlightAware ADS-B
Wed 05:33:10 PM 41.8820 -89.8150 44° Northeast 183 211 8,700  Level FlightAware ADS-B
Wed 05:33:34 PM 41.8960 -89.7960 45° Northeast 183 211 8,700  Level FlightAware ADS-B
Wed 05:33:50 PM 41.9050 -89.7830 47° Northeast 183 211 8,700 -308 Level FlightAware ADS-B
Wed 05:34:13 PM 41.9210 -89.7640 41° Northeast 189 217 8,500 -600 Descending FlightAware ADS-B
Wed 05:34:40 PM 41.9380 -89.7440 41° Northeast 190 219 8,200 -545 Descending FlightAware ADS-B
Wed 05:35:08 PM 41.9560 -89.7220 42° Northeast 189 217 8,000 -556 Descending FlightAware ADS-B
Wed 05:35:34 PM 41.9740 -89.7010 41° Northeast 190 219 7,700 -632 Descending FlightAware ADS-B
Wed 05:36:05 PM 41.9940 -89.6760 43° Northeast 195 224 7,400 -600 Descending FlightAware ADS-B
Wed 05:36:24 PM 42.0070 -89.6620 39° Northeast 194 223 7,200 -667 Descending FlightAware ADS-B
Wed 05:36:50 PM 42.0240 -89.6400 44° Northeast 194 223 6,900 -571 Descending FlightAware ADS-B
Wed 05:37:06 PM 42.0350 -89.6270 41° Northeast 194 223 6,800 -414 Descending FlightAware ADS-B
Wed 05:37:19 PM 42.0440 -89.6160 42° Northeast 195 224 6,700 -585 Descending FlightAware ADS-B
Wed 05:37:47 PM 42.0630 -89.5940 41° Northeast 194 223 6,400 -655 Descending FlightAware ADS-B
Wed 05:38:14 PM 42.0800 -89.5730 43° Northeast 194 223 6,100 -655 Descending FlightAware ADS-B
Wed 05:38:42 PM 42.0990 -89.5500 42° Northeast 194 223 5,800 -590 Descending FlightAware ADS-B
Wed 05:39:15 PM 42.1210 -89.5230 42° Northeast 191 220 5,500 -590 Descending FlightAware ADS-B
Wed 05:39:43 PM 42.1400 -89.5000 42° Northeast 193 222 5,200 -655 Descending FlightAware ADS-B
Wed 05:40:10 PM 42.1570 -89.4790 42° Northeast 192 221 4,900 -566 Descending FlightAware ADS-B
Wed 05:40:36 PM 42.1740 -89.4580 42° Northeast 190 219 4,700 -324 Descending FlightAware ADS-B
Wed 05:40:47 PM 42.1820 -89.4490 40° Northeast 184 212 4,700  Level FlightAware ADS-B
Wed 05:41:16 PM 42.2000 -89.4270 42° Northeast 181 208 4,700  Level FlightAware ADS-B
Wed 05:41:40 PM 42.2150 -89.4090 42° Northeast 179 206 4,700  Level FlightAware ADS-B
Wed 05:42:07 PM 42.2310 -89.3880 44° Northeast 176 203 4,700  Level FlightAware ADS-B
Wed 05:42:24 PM 42.2410 -89.3760 42° Northeast 174 200 4,700  Level FlightAware ADS-B
Wed 05:42:50 PM 42.2570 -89.3580 40° Northeast 172 198 4,700  Level FlightAware ADS-B
Wed 05:43:17 PM 42.2730 -89.3380 43° Northeast 173 199 4,700  Level FlightAware ADS-B
Wed 05:43:41 PM 42.2870 -89.3210 42° Northeast 172 198 4,700  Level FlightAware ADS-B
Wed 05:44:07 PM 42.3020 -89.3020 43° Northeast 173 199 4,700  Level FlightAware ADS-B
Wed 05:44:35 PM 42.3180 -89.2820 43° Northeast 174 200 4,700  Level FlightAware ADS-B
Wed 05:45:04 PM 42.3350 -89.2610 42° Northeast 173 199 4,700  Level FlightAware ADS-B
Wed 05:45:33 PM 42.3520 -89.2400 42° Northeast 173 199 4,700  Level FlightAware ADS-B
Wed 05:46:00 PM 42.3690 -89.2190 42° Northeast 175 201 4,700  Level FlightAware ADS-B
Wed 05:46:26 PM 42.3850 -89.2000 41° Northeast 174 200 4,700  Level FlightAware ADS-B
Wed 05:46:56 PM 42.4030 -89.1780 42° Northeast 174 200 4,700  Level FlightAware ADS-B
Wed 05:47:25 PM 42.4200 -89.1570 42° Northeast 175 201 4,700  Level FlightAware ADS-B
Wed 05:47:51 PM 42.4360 -89.1370 43° Northeast 175 201 4,700  Level FlightAware ADS-B
Wed 05:48:20 PM 42.4540 -89.1150 42° Northeast 174 200 4,700  Level FlightAware ADS-B
Wed 05:48:49 PM 42.4710 -89.0940 42° Northeast 172 198 4,700  Level FlightAware ADS-B
Wed 05:49:13 PM 42.4850 -89.0770 42° Northeast 172 198 4,700  Level FlightAware ADS-B
Wed 05:49:44 PM 42.5030 -89.0550 42° Northeast 172 198 4,700  Level FlightAware ADS-B
Wed 05:50:12 PM 42.5200 -89.0340 42° Northeast 174 200 4,700  Level FlightAware ADS-B
Wed 05:50:41 PM 42.5360 -89.0130 44° Northeast 173 199 4,700  Level FlightAware ADS-B
Wed 05:51:09 PM 42.5530 -88.9930 41° Northeast 169 194 4,700  Level FlightAware ADS-B
Wed 05:51:37 PM 42.5690 -88.9720 44° Northeast 168 193 4,700  Level FlightAware ADS-B
Wed 05:52:02 PM 42.5840 -88.9540 41° Northeast 169 194 4,700  Level FlightAware ADS-B
Wed 05:52:25 PM 42.5960 -88.9390 43° Northeast 169 194 4,700  Level FlightAware ADS-B
Wed 05:52:55 PM 42.6140 -88.9170 42° Northeast 169 194 4,700  Level FlightAware ADS-B
Wed 05:53:23 PM 42.6300 -88.8970 43° Northeast 169 194 4,700  Level FlightAware ADS-B
Wed 05:53:50 PM 42.6460 -88.8770 43° Northeast 172 198 4,700  Level FlightAware ADS-B
Wed 05:54:15 PM 42.6600 -88.8590 43° Northeast 171 197 4,700  Level FlightAware ADS-B
Wed 05:54:43 PM 42.6760 -88.8390 43° Northeast 171 197 4,700  Level FlightAware ADS-B
Wed 05:54:59 PM 42.6850 -88.8280 42° Northeast 172 198 4,700  Level FlightAware ADS-B
Wed 05:55:24 PM 42.7000 -88.8090 43° Northeast 171 197 4,700 109 Level FlightAware ADS-B
Wed 05:55:54 PM 42.7180 -88.7870 42° Northeast 169 194 4,800 105 Climbing FlightAware ADS-B
Wed 05:56:21 PM 42.7340 -88.7670 43° Northeast 171 197 4,800  Level FlightAware ADS-B
Wed 05:56:50 PM 42.7510 -88.7460 42° Northeast 171 197 4,800  Level FlightAware ADS-B
Wed 05:57:14 PM 42.7650 -88.7280 43° Northeast 171 197 4,800  Level FlightAware ADS-B
Wed 05:57:34 PM 42.7760 -88.7150 41° Northeast 171 197 4,800  Level FlightAware ADS-B
Wed 05:58:07 PM 42.7960 -88.6900 43° Northeast 172 198 4,800  Level FlightAware ADS-B
Wed 05:58:36 PM 42.8130 -88.6680 44° Northeast 172 198 4,800  Level FlightAware ADS-B
Wed 05:58:52 PM 42.8220 -88.6560 44° Northeast 172 198 4,800  Level FlightAware ADS-B
Wed 05:59:16 PM 42.8370 -88.6380 41° Northeast 174 200 4,800  Level FlightAware ADS-B
Wed 05:59:48 PM 42.8560 -88.6140 43° Northeast 174 200 4,800  Level FlightAware ADS-B
Wed 06:00:16 PM 42.8720 -88.5940 42° Northeast 171 197 4,800  Level FlightAware ADS-B
Wed 06:00:39 PM 42.8850 -88.5780 42° Northeast 170 196 4,800  Level FlightAware ADS-B
Wed 06:01:12 PM 42.9050 -88.5530 42° Northeast 172 198 4,800  Level FlightAware ADS-B
Wed 06:01:37 PM 42.9200 -88.5340 43° Northeast 174 200 4,800  Level FlightAware ADS-B
Wed 06:02:07 PM 42.9370 -88.5120 43° Northeast 173 199 4,800  Level FlightAware ADS-B
Wed 06:02:36 PM 42.9540 -88.4910 42° Northeast 173 199 4,800  Level FlightAware ADS-B
Wed 06:03:04 PM 42.9700 -88.4700 44° Northeast 174 200 4,800  Level FlightAware ADS-B
Wed 06:03:24 PM 42.9820 -88.4550 42° Northeast 175 201 4,800  Level FlightAware ADS-B
Wed 06:03:54 PM 43.0010 -88.4320 42° Northeast 171 197 4,800  Level FlightAware ADS-B
Wed 06:04:26 PM 43.0180 -88.4090 45° Northeast 166 191 4,800  Level FlightAware ADS-B
Wed 06:04:41 PM 43.0280 -88.3980 39° Northeast 162 186 4,800  Level FlightAware ADS-B
Wed 06:05:09 PM 43.0430 -88.3790 43° Northeast 158 182 4,800  Level FlightAware ADS-B
Wed 06:05:33 PM 43.0540 -88.3640 45° Northeast 158 182 4,800  Level FlightAware ADS-B
Wed 06:06:06 PM 43.0720 -88.3380 47° Northeast 160 184 4,800  Level FlightAware ADS-B
Wed 06:06:26 PM 43.0820 -88.3230 48° Northeast 158 182 4,800  Level FlightAware ADS-B
Wed 06:06:53 PM 43.0950 -88.3020 50° Northeast 155 178 4,800  Level FlightAware ADS-B
Wed 06:07:22 PM 43.1070 -88.2830 49° Northeast 153 176 4,800  Level FlightAware ADS-B
Wed 06:07:50 PM 43.1210 -88.2620 48° Northeast 153 176 4,800  Level FlightAware ADS-B
Wed 06:08:13 PM 43.1320 -88.2440 50° Northeast 155 178 4,800  Level FlightAware ADS-B
Wed 06:08:37 PM 43.1430 -88.2260 50° Northeast 154 177 4,800  Level FlightAware ADS-B
Wed 06:08:49 PM 43.1490 -88.2170 48° Northeast 155 178 4,800 -474 Level FlightAware ADS-B
Wed 06:09:15 PM 43.1620 -88.1960 50° Northeast 161 185 4,500 -667 Descending FlightAware ADS-B
Wed 06:09:34 PM 43.1700 -88.1830 50° Northeast 165 190 4,300 -393 Descending FlightAware ADS-B
Wed 06:10:16 PM 43.1900 -88.1530 48° Northeast 165 190 4,100 -173 Descending FlightAware ADS-B
Wed 06:11:18 PM 43.2181 -88.1067 48° Northeast 162 186 4,000 -242 Descending Chicago Center
Wed 06:12:20 PM 43.2378 -88.0603 60° Northeast 150 173 3,600 -484 Descending Chicago Center
Wed 06:13:22 PM 43.2547 -88.0006 69° East 159 183 3,000 -290 Descending Chicago Center
Wed 06:14:24 PM 43.2536 -87.9386 91° East 141 162 3,000 -48 Level Chicago Center
Wed 06:15:26 PM 43.2244 -87.9228 158° South 130 150 2,900  Descending Chicago Center
Wed 06:16:28 PM 43.1989 -87.9469 215° Southwest 116 133 3,000 48 Climbing Chicago Center
Wed 06:17:30 PM 43.1725 -87.9717 214° Southwest 114 131 3,000 -387 Level Chicago Center
Wed 06:18:32 PM 43.1469 -87.9975 216° Southwest 114 131 2,200 -864 Descending Chicago Center
Wed 06:19:35 PM 43.1183 -88.0264 216° Southwest 115 132 1,200 -952 Descending Chicago Center

Login

Don't have an account? Register now (free) for customized features, flight alerts, and more!